createdAt,value
2022-10-31T00:01:38.155Z,7.57
2022-10-31T00:04:07.178Z,8.33
2022-10-31T00:06:36.850Z,6.40
2022-10-31T00:09:06.419Z,7.93
2022-10-31T00:11:34.663Z,4.70
2022-10-31T00:14:03.260Z,4.63
2022-10-31T00:16:32.555Z,4.73
2022-10-31T00:19:03.336Z,8.73
2022-10-31T00:21:32.566Z,6.17
2022-10-31T00:24:03.171Z,3.80
2022-10-31T00:26:32.677Z,6.63
2022-10-31T00:29:01.958Z,5.73
2022-10-31T00:31:30.970Z,5.20
2022-10-31T00:34:00.167Z,7.40
2022-10-31T00:36:28.895Z,6.60
2022-10-31T00:38:57.157Z,7.37
2022-10-31T00:41:27.390Z,8.30
2022-10-31T00:43:55.616Z,4.70
2022-10-31T00:46:23.763Z,8.03
2022-10-31T00:48:52.659Z,7.43
2022-10-31T00:51:20.972Z,7.10
2022-10-31T00:53:49.221Z,6.43
2022-10-31T00:56:17.386Z,5.80
2022-10-31T00:58:46.892Z,3.93
2022-10-31T01:01:15.154Z,5.57
2022-10-31T01:03:43.399Z,6.07
2022-10-31T01:06:15.393Z,6.17
2022-10-31T01:08:44.074Z,5.17
2022-10-31T01:11:18.650Z,6.80
2022-10-31T01:13:49.007Z,7.97
2022-10-31T01:16:19.554Z,5.63
2022-10-31T01:18:48.176Z,8.83
2022-10-31T01:21:19.124Z,4.93
2022-10-31T01:23:47.731Z,8.67
2022-10-31T01:26:18.851Z,8.00
2022-10-31T01:28:50.826Z,4.03
2022-10-31T01:31:21.481Z,4.80
2022-10-31T01:33:51.543Z,6.83
2022-10-31T01:36:23.884Z,6.67
2022-10-31T01:38:58.159Z,6.63
2022-10-31T01:41:29.278Z,5.20
2022-10-31T01:44:01.529Z,6.47
2022-10-31T01:46:34.951Z,8.40
2022-10-31T01:49:07.408Z,6.63
2022-10-31T01:51:40.822Z,6.60
2022-10-31T01:54:14.468Z,4.43
2022-10-31T01:56:49.865Z,9.07
2022-10-31T01:59:23.052Z,7.67
2022-10-31T02:01:53.952Z,5.43
2022-10-31T02:04:25.244Z,5.43
2022-10-31T02:07:00.800Z,6.53
2022-10-31T02:09:30.920Z,6.40
2022-10-31T02:12:01.380Z,5.27
2022-10-31T02:14:33.204Z,9.63
2022-10-31T02:17:01.419Z,4.87
2022-10-31T02:19:38.896Z,6.37
2022-10-31T02:22:15.457Z,6.03
2022-10-31T02:24:58.629Z,6.70
2022-10-31T02:28:04.153Z,7.80
2022-10-31T02:30:43.344Z,5.33
2022-10-31T02:33:27.261Z,10.53
2022-10-31T02:36:07.265Z,6.83
2022-10-31T02:38:49.591Z,3.70
2022-10-31T02:41:37.640Z,6.67
2022-10-31T02:44:16.442Z,5.60
2022-10-31T02:46:51.033Z,7.50
2022-10-31T02:49:28.648Z,5.37
2022-10-31T02:51:57.011Z,5.77
2022-10-31T02:54:28.260Z,7.43
2022-10-31T02:57:03.517Z,7.27
2022-10-31T02:59:35.047Z,5.30
2022-10-31T03:02:50.046Z,5.60
2022-10-31T03:05:39.688Z,8.83
2022-10-31T03:08:19.173Z,4.77
2022-10-31T03:10:54.874Z,2.67
2022-10-31T03:13:32.176Z,5.53
2022-10-31T03:16:11.149Z,4.10
2022-10-31T03:18:46.522Z,5.77
2022-10-31T03:21:20.634Z,4.40
2022-10-31T03:23:51.194Z,4.37
2022-10-31T03:26:23.950Z,5.70
2022-10-31T03:28:56.655Z,5.87
2022-10-31T03:31:31.307Z,4.17
2022-10-31T03:34:04.221Z,6.27
2022-10-31T03:36:37.103Z,4.57
2022-10-31T03:39:09.639Z,6.30
2022-10-31T03:41:44.635Z,5.50
2022-10-31T03:44:19.775Z,6.50
2022-10-31T03:46:54.873Z,5.93
2022-10-31T03:49:23.836Z,7.03
2022-10-31T03:52:01.165Z,6.33
2022-10-31T03:54:36.827Z,6.00
2022-10-31T03:57:15.603Z,2.70
2022-10-31T03:59:49.151Z,3.90
2022-10-31T04:02:21.418Z,7.33
2022-10-31T04:04:51.165Z,7.30
2022-10-31T04:07:23.376Z,4.30
2022-10-31T04:09:54.433Z,4.23
2022-10-31T04:12:24.860Z,5.63
2022-10-31T04:15:13.089Z,4.10
2022-10-31T04:17:47.182Z,6.57
2022-10-31T04:20:18.757Z,6.73
2022-10-31T04:22:48.366Z,3.70
2022-10-31T04:25:16.747Z,5.27
2022-10-31T04:27:44.870Z,4.20
2022-10-31T04:30:14.010Z,7.47
2022-10-31T04:32:42.730Z,5.33
2022-10-31T04:35:10.913Z,4.77
2022-10-31T04:37:39.249Z,5.33
2022-10-31T04:40:10.568Z,4.43
2022-10-31T04:42:44.364Z,5.73
2022-10-31T04:45:15.584Z,3.27
2022-10-31T04:47:46.918Z,5.47
2022-10-31T04:50:15.022Z,5.00
2022-10-31T04:52:45.509Z,3.97
2022-10-31T04:55:17.860Z,4.97
2022-10-31T04:58:11.875Z,4.23
2022-10-31T05:00:40.184Z,7.03
2022-10-31T05:03:08.513Z,4.93
2022-10-31T05:05:36.829Z,3.93
2022-10-31T05:08:05.997Z,9.10
2022-10-31T05:10:35.845Z,5.90
2022-10-31T05:13:06.440Z,5.00
2022-10-31T05:15:36.022Z,4.53
2022-10-31T05:18:23.172Z,4.57
2022-10-31T05:21:10.018Z,3.60
2022-10-31T05:23:47.495Z,4.53
2022-10-31T05:26:19.164Z,4.03
2022-10-31T05:28:51.407Z,3.37
2022-10-31T05:31:19.654Z,4.57
2022-10-31T05:33:47.997Z,6.30
2022-10-31T05:36:34.707Z,5.13
2022-10-31T05:39:12.787Z,6.57
2022-10-31T05:41:45.650Z,5.83
2022-10-31T05:44:18.885Z,7.57
2022-10-31T05:47:16.660Z,4.50
2022-10-31T05:50:03.435Z,7.13
2022-10-31T05:52:59.461Z,6.57
2022-10-31T05:55:41.668Z,13.07
2022-10-31T05:58:16.835Z,4.97
2022-10-31T06:00:52.550Z,4.00
2022-10-31T06:03:20.922Z,4.73
2022-10-31T06:05:55.070Z,6.20
2022-10-31T06:08:27.197Z,6.77
2022-10-31T06:10:57.671Z,6.27
2022-10-31T06:13:47.973Z,6.50
2022-10-31T06:16:22.015Z,6.57
2022-10-31T06:18:51.798Z,4.77
2022-10-31T06:21:21.194Z,12.20
2022-10-31T06:23:52.348Z,7.37
2022-10-31T06:26:38.875Z,5.13
2022-10-31T06:29:08.775Z,4.23
2022-10-31T06:32:00.123Z,7.73
2022-10-31T06:34:29.971Z,5.57
2022-10-31T06:36:59.900Z,7.07
2022-10-31T06:39:32.497Z,7.27
2022-10-31T06:42:03.284Z,7.73
2022-10-31T06:44:39.527Z,4.80
2022-10-31T06:47:56.860Z,4.33
2022-10-31T06:50:32.615Z,3.63
2022-10-31T06:53:01.365Z,9.93
2022-10-31T06:55:30.521Z,6.57
2022-10-31T06:58:03.105Z,6.87
2022-10-31T07:00:34.660Z,4.27
2022-10-31T07:03:13.419Z,6.43
2022-10-31T07:05:42.626Z,6.33
2022-10-31T07:08:14.903Z,6.40
2022-10-31T07:10:54.006Z,4.90
2022-10-31T07:13:26.364Z,6.93
2022-10-31T07:16:09.337Z,5.53
2022-10-31T07:18:38.805Z,5.17
2022-10-31T07:21:07.952Z,5.03
2022-10-31T07:23:39.147Z,8.37
2022-10-31T07:26:27.083Z,7.93
2022-10-31T07:28:55.694Z,3.47
2022-10-31T07:31:28.157Z,7.27
2022-10-31T07:34:00.455Z,11.17
2022-10-31T07:36:31.405Z,6.53
2022-10-31T07:39:04.728Z,4.83
2022-10-31T07:41:45.970Z,5.37
2022-10-31T07:44:22.989Z,3.90
2022-10-31T07:47:11.286Z,5.03
2022-10-31T07:49:59.578Z,6.90
2022-10-31T07:53:04.746Z,7.27
2022-10-31T07:55:56.218Z,6.90
2022-10-31T07:58:30.501Z,5.40
2022-10-31T08:01:01.179Z,4.60
2022-10-31T08:03:40.819Z,4.43
2022-10-31T08:06:11.763Z,4.83
2022-10-31T08:09:09.170Z,4.53
2022-10-31T08:11:37.784Z,5.37
2022-10-31T08:14:06.489Z,8.40
2022-10-31T08:16:35.607Z,6.57
2022-10-31T08:19:07.723Z,7.67
2022-10-31T08:21:40.251Z,9.47
2022-10-31T08:24:10.508Z,9.33
2022-10-31T08:26:39.510Z,7.87
2022-10-31T08:29:10.691Z,7.97
2022-10-31T08:31:42.889Z,7.93
2022-10-31T08:34:31.141Z,8.07
2022-10-31T08:37:25.265Z,7.37
2022-10-31T08:39:56.362Z,8.23
2022-10-31T08:42:24.608Z,6.60
2022-10-31T08:44:53.129Z,7.73
2022-10-31T08:47:23.682Z,9.20
2022-10-31T08:49:53.214Z,12.87
2022-10-31T08:52:51.244Z,5.50
2022-10-31T08:55:16.311Z,10.07
2022-10-31T08:58:05.248Z,5.17
2022-10-31T09:00:42.252Z,6.50
2022-10-31T09:03:22.690Z,7.27
2022-10-31T09:05:56.247Z,6.47
2022-10-31T09:08:25.384Z,11.93
2022-10-31T09:10:54.076Z,6.73
2022-10-31T09:13:41.390Z,7.60
2022-10-31T09:16:44.934Z,9.03
2022-10-31T09:19:22.615Z,7.63
2022-10-31T09:21:55.570Z,10.67
2022-10-31T09:24:24.345Z,11.83
2022-10-31T09:26:52.512Z,4.70
2022-10-31T09:29:28.134Z,8.30
2022-10-31T09:32:00.508Z,6.43
2022-10-31T09:34:33.128Z,8.20
2022-10-31T09:37:11.831Z,5.13
2022-10-31T09:39:41.420Z,11.53
2022-10-31T09:42:49.999Z,7.33
2022-10-31T09:45:31.119Z,6.07
2022-10-31T09:48:43.929Z,6.37
2022-10-31T09:51:29.803Z,7.07
2022-10-31T09:54:30.713Z,11.07
2022-10-31T09:57:01.203Z,5.17
2022-10-31T09:59:33.654Z,8.10
2022-10-31T10:02:09.418Z,4.70
2022-10-31T10:04:46.283Z,8.57
2022-10-31T10:07:31.374Z,9.23
2022-10-31T10:10:26.950Z,7.93
2022-10-31T10:13:42.560Z,6.97
2022-10-31T10:16:34.181Z,3.63
2022-10-31T10:19:21.810Z,3.60
2022-10-31T10:22:05.029Z,8.97
2022-10-31T10:24:55.828Z,8.97
2022-10-31T10:27:41.634Z,6.03
2022-10-31T10:30:17.199Z,6.27
2022-10-31T10:32:52.141Z,4.90
2022-10-31T10:35:28.550Z,7.53
2022-10-31T10:38:04.203Z,7.20
2022-10-31T10:40:33.184Z,7.13
2022-10-31T10:43:26.759Z,7.10
2022-10-31T10:46:37.660Z,5.33
2022-10-31T10:49:33.112Z,6.50
2022-10-31T10:52:27.429Z,7.07
2022-10-31T10:55:05.193Z,10.13
2022-10-31T10:57:55.047Z,6.20
2022-10-31T11:00:27.646Z,8.83
2022-10-31T11:02:57.009Z,8.00
2022-10-31T11:05:32.544Z,8.37
2022-10-31T11:08:00.904Z,6.70
2022-10-31T11:10:30.320Z,8.37
2022-10-31T11:13:24.634Z,9.00
2022-10-31T11:16:00.666Z,5.20
2022-10-31T11:18:34.915Z,7.07
2022-10-31T11:21:06.467Z,7.50
2022-10-31T11:23:38.959Z,8.67
2022-10-31T11:26:20.726Z,9.13
2022-10-31T11:28:59.644Z,7.03
2022-10-31T11:31:33.835Z,8.70
2022-10-31T11:34:04.986Z,9.23
2022-10-31T11:36:40.058Z,9.97
2022-10-31T11:39:22.048Z,14.30
2022-10-31T11:41:55.795Z,13.07
2022-10-31T11:44:28.552Z,11.40
2022-10-31T11:47:01.129Z,7.77
2022-10-31T11:49:34.789Z,6.73
2022-10-31T11:52:08.308Z,8.83
2022-10-31T11:54:47.289Z,9.50
2022-10-31T11:57:30.838Z,10.47
2022-10-31T12:00:05.031Z,8.87
2022-10-31T12:02:41.855Z,12.07
2022-10-31T12:05:23.710Z,10.20
2022-10-31T12:07:52.663Z,9.47
2022-10-31T12:10:32.794Z,15.07
2022-10-31T12:13:13.299Z,9.57
2022-10-31T12:15:47.520Z,9.03
2022-10-31T12:18:54.213Z,11.70
2022-10-31T12:21:53.023Z,14.70
2022-10-31T12:24:41.853Z,13.83
2022-10-31T12:27:22.233Z,10.57
2022-10-31T12:30:19.352Z,14.87
2022-10-31T12:33:22.525Z,8.93
2022-10-31T12:36:04.449Z,8.33
2022-10-31T12:38:56.811Z,7.60
2022-10-31T12:41:41.577Z,9.63
2022-10-31T12:44:28.784Z,9.00
2022-10-31T12:47:20.721Z,9.47
2022-10-31T12:50:02.611Z,7.23
2022-10-31T12:52:49.164Z,11.50
2022-10-31T12:55:43.582Z,6.30
2022-10-31T12:58:22.103Z,7.77
2022-10-31T13:01:00.274Z,10.97
2022-10-31T13:03:36.020Z,13.13
2022-10-31T13:06:11.644Z,11.70
2022-10-31T13:08:47.084Z,11.43
2022-10-31T13:11:20.772Z,9.97
2022-10-31T13:14:01.990Z,15.20
2022-10-31T13:16:36.549Z,11.50
2022-10-31T13:19:14.775Z,8.93
2022-10-31T13:21:53.525Z,9.67
2022-10-31T13:24:30.193Z,11.03
2022-10-31T13:27:01.332Z,9.90
2022-10-31T13:29:35.296Z,9.73
2022-10-31T13:32:08.122Z,11.00
2022-10-31T13:34:40.959Z,11.00
2022-10-31T13:37:22.195Z,11.77
2022-10-31T13:40:12.894Z,11.67
2022-10-31T13:42:57.860Z,11.60
2022-10-31T13:45:28.080Z,10.90
2022-10-31T13:48:19.651Z,10.00
2022-10-31T13:51:00.642Z,10.43
2022-10-31T13:53:44.645Z,11.53
2022-10-31T13:56:27.962Z,10.17
2022-10-31T13:59:21.641Z,11.27
2022-10-31T14:01:57.090Z,6.73
2022-10-31T14:04:34.564Z,13.00
2022-10-31T14:07:10.812Z,10.40
2022-10-31T14:09:42.899Z,20.27
2022-10-31T14:12:26.448Z,10.83
2022-10-31T14:15:21.403Z,8.33
2022-10-31T14:17:52.626Z,11.10
2022-10-31T14:20:39.237Z,12.13
2022-10-31T14:23:38.724Z,10.03
2022-10-31T14:26:37.312Z,12.43
2022-10-31T14:29:27.389Z,9.07
2022-10-31T14:32:03.878Z,10.20
2022-10-31T14:34:38.489Z,13.40
2022-10-31T14:37:39.136Z,14.97
2022-10-31T14:40:26.123Z,8.50
2022-10-31T14:43:47.627Z,8.30
2022-10-31T14:46:32.824Z,10.30
2022-10-31T14:49:35.240Z,9.63
2022-10-31T14:52:07.375Z,10.80
2022-10-31T14:54:40.239Z,7.33
2022-10-31T14:57:16.695Z,10.13
2022-10-31T14:59:52.731Z,8.20
2022-10-31T15:02:27.472Z,9.43
2022-10-31T15:04:57.672Z,9.70
2022-10-31T15:07:27.800Z,12.97
2022-10-31T15:10:01.238Z,13.13
2022-10-31T15:12:32.153Z,8.70
2022-10-31T15:15:13.581Z,11.57
2022-10-31T15:17:50.168Z,10.87
2022-10-31T15:20:22.776Z,13.53
2022-10-31T15:22:51.609Z,10.17
2022-10-31T15:25:22.616Z,12.63
2022-10-31T15:27:52.642Z,9.10
2022-10-31T15:30:24.027Z,8.77
2022-10-31T15:32:58.615Z,10.10
2022-10-31T15:35:30.142Z,14.23
2022-10-31T15:38:01.758Z,14.60
2022-10-31T15:40:30.297Z,10.40
2022-10-31T15:43:06.904Z,10.80
2022-10-31T15:45:36.637Z,13.57
2022-10-31T15:48:18.607Z,15.13
2022-10-31T15:50:52.055Z,12.00
2022-10-31T15:53:25.595Z,9.83
2022-10-31T15:55:57.390Z,14.07
2022-10-31T15:58:26.539Z,9.57
2022-10-31T16:01:03.308Z,9.60
2022-10-31T16:03:35.230Z,10.27
2022-10-31T16:06:06.506Z,10.93
2022-10-31T16:08:37.175Z,11.63
2022-10-31T16:11:25.090Z,12.73
2022-10-31T16:14:01.521Z,10.90
2022-10-31T16:16:35.598Z,13.53
2022-10-31T16:19:14.609Z,9.17
2022-10-31T16:21:42.914Z,12.47
2022-10-31T16:24:21.350Z,14.47
2022-10-31T16:26:51.895Z,12.07
2022-10-31T16:29:35.876Z,19.57
2022-10-31T16:32:26.504Z,9.80
2022-10-31T16:35:25.342Z,19.83
2022-10-31T16:37:54.200Z,18.23
2022-10-31T16:40:24.690Z,21.57
2022-10-31T16:42:53.939Z,26.50
2022-10-31T16:45:24.966Z,21.40
2022-10-31T16:48:07.101Z,22.00
2022-10-31T16:50:36.734Z,19.53
2022-10-31T16:53:20.266Z,25.67
2022-10-31T16:55:58.812Z,23.70
2022-10-31T16:58:33.103Z,20.57
2022-10-31T17:03:55.003Z,19.07
2022-10-31T17:06:24.579Z,20.07
2022-10-31T17:08:56.685Z,16.13
2022-10-31T17:11:27.412Z,50.40
2022-10-31T17:13:57.343Z,21.47
2022-10-31T17:16:25.485Z,18.07
2022-10-31T17:18:53.625Z,21.50
2022-10-31T17:21:27.996Z,30.10
2022-10-31T17:23:56.499Z,33.63
2022-10-31T17:26:24.671Z,53.23
2022-10-31T17:28:52.891Z,64.77
2022-10-31T17:31:29.112Z,58.93
2022-10-31T17:34:02.048Z,28.80
2022-10-31T17:36:34.235Z,29.63
2022-10-31T17:39:03.331Z,43.77
2022-10-31T17:41:31.667Z,33.87
2022-10-31T17:44:00.853Z,34.20
2022-10-31T17:46:29.284Z,27.53
2022-10-31T17:49:00.848Z,26.33
2022-10-31T17:51:29.081Z,25.83
2022-10-31T17:53:59.835Z,25.67
2022-10-31T17:56:28.363Z,31.03
2022-10-31T17:58:57.887Z,26.30
2022-10-31T18:01:26.354Z,22.93
2022-10-31T18:03:58.720Z,19.47
2022-10-31T18:06:27.255Z,14.70
2022-10-31T18:08:57.917Z,13.47
2022-10-31T18:11:27.433Z,12.70
2022-10-31T18:13:57.340Z,11.10
2022-10-31T18:16:26.754Z,16.33
2022-10-31T18:18:59.362Z,18.10
2022-10-31T18:21:27.722Z,18.20
2022-10-31T18:23:56.883Z,13.00
2022-10-31T18:26:28.351Z,12.60
2022-10-31T18:28:56.661Z,13.70
2022-10-31T18:31:25.661Z,13.07
2022-10-31T18:33:54.528Z,17.30
2022-10-31T18:36:23.018Z,17.53
2022-10-31T18:38:51.299Z,13.93
2022-10-31T18:41:20.070Z,9.57
2022-10-31T18:43:49.753Z,15.63
2022-10-31T18:46:19.033Z,13.10
2022-10-31T18:48:47.406Z,13.17
2022-10-31T18:51:18.371Z,14.53
2022-10-31T18:53:52.947Z,15.70
2022-10-31T18:56:22.048Z,10.60
2022-10-31T18:58:52.507Z,10.87
2022-10-31T19:01:22.755Z,14.83
2022-10-31T19:03:55.718Z,12.50
2022-10-31T19:06:24.417Z,11.33
2022-10-31T19:08:59.958Z,9.87
2022-10-31T19:11:29.375Z,7.87
2022-10-31T19:13:59.803Z,8.83
2022-10-31T19:16:28.641Z,10.57
2022-10-31T19:18:59.988Z,9.60
2022-10-31T19:21:30.404Z,15.43
2022-10-31T19:24:03.141Z,15.27
2022-10-31T19:26:31.609Z,16.03
2022-10-31T19:29:01.652Z,15.53
2022-10-31T19:31:32.439Z,16.53
2022-10-31T19:34:00.662Z,7.83
2022-10-31T19:36:29.613Z,12.67
2022-10-31T19:38:58.907Z,11.00
2022-10-31T19:41:30.547Z,22.63
2022-10-31T19:44:02.000Z,115.90
2022-10-31T19:49:18.943Z,31.00
2022-10-31T19:51:47.148Z,14.03
2022-10-31T19:54:15.468Z,14.47
2022-10-31T19:59:13.694Z,13.97
2022-10-31T20:01:42.059Z,15.43
2022-10-31T20:04:10.403Z,16.20
2022-10-31T20:06:41.922Z,11.73
2022-10-31T20:09:13.636Z,16.77
2022-10-31T20:11:44.229Z,11.93
2022-10-31T20:14:17.225Z,11.90
2022-10-31T20:16:46.908Z,8.73
2022-10-31T20:19:15.185Z,8.40
2022-10-31T20:21:43.591Z,10.00
2022-10-31T20:24:16.542Z,10.37
2022-10-31T20:26:44.644Z,9.47
2022-10-31T20:29:16.836Z,8.23
2022-10-31T20:31:47.188Z,8.60
2022-10-31T20:34:16.070Z,7.77
2022-10-31T20:36:44.687Z,8.20
2022-10-31T20:39:13.135Z,9.37
2022-10-31T20:41:41.392Z,7.27
2022-10-31T20:44:09.630Z,7.40
2022-10-31T20:46:39.594Z,11.33
2022-10-31T20:49:08.195Z,7.10
2022-10-31T20:51:36.355Z,15.23
2022-10-31T20:54:06.758Z,7.67
2022-10-31T20:56:38.156Z,9.63
2022-10-31T20:59:08.065Z,11.87
2022-10-31T21:01:38.518Z,8.60
2022-10-31T21:04:09.835Z,10.67
2022-10-31T21:06:38.054Z,8.17
2022-10-31T21:09:06.645Z,8.17
2022-10-31T21:11:34.926Z,12.03
2022-10-31T21:14:03.058Z,8.13
2022-10-31T21:16:36.267Z,11.60
2022-10-31T21:19:06.682Z,8.77
2022-10-31T21:21:36.725Z,9.73
2022-10-31T21:24:11.135Z,10.10
2022-10-31T21:26:43.165Z,11.13
2022-10-31T21:29:13.271Z,10.30
2022-10-31T21:31:43.199Z,7.13
2022-10-31T21:34:13.303Z,12.47
2022-10-31T21:36:41.906Z,9.73
2022-10-31T21:39:14.624Z,13.43
2022-10-31T21:41:46.466Z,12.10
2022-10-31T21:44:14.697Z,11.77
2022-10-31T21:46:43.195Z,11.53
2022-10-31T21:49:15.818Z,11.20
2022-10-31T21:51:44.147Z,9.70
2022-10-31T21:54:28.354Z,7.40
2022-10-31T21:56:57.357Z,8.03
2022-10-31T21:59:26.141Z,9.17
2022-10-31T22:01:56.883Z,11.33
2022-10-31T22:04:26.597Z,12.60
2022-10-31T22:06:55.008Z,10.53
2022-10-31T22:09:23.759Z,16.00
2022-10-31T22:11:52.127Z,12.43
2022-10-31T22:14:20.353Z,9.23
2022-10-31T22:16:48.636Z,8.43
2022-10-31T22:19:17.114Z,10.70
2022-10-31T22:21:48.848Z,14.63
2022-10-31T22:24:18.383Z,11.20
2022-10-31T22:26:46.734Z,10.93
2022-10-31T22:29:17.999Z,6.33
2022-10-31T22:31:50.781Z,7.50
2022-10-31T22:34:22.140Z,10.97
2022-10-31T22:36:51.773Z,7.53
2022-10-31T22:39:20.924Z,10.63
2022-10-31T22:41:49.152Z,7.60
2022-10-31T22:44:17.441Z,12.20
2022-10-31T22:46:45.689Z,9.97
2022-10-31T22:49:16.109Z,8.93
2022-10-31T22:51:45.755Z,9.93
2022-10-31T22:54:18.129Z,9.83
2022-10-31T22:56:47.410Z,9.93
2022-10-31T22:59:17.650Z,9.93
2022-10-31T23:01:46.629Z,9.60
2022-10-31T23:04:16.558Z,10.27
2022-10-31T23:06:45.164Z,11.53
2022-10-31T23:09:18.655Z,9.13
2022-10-31T23:11:47.262Z,11.30
2022-10-31T23:14:20.412Z,13.90
2022-10-31T23:16:51.429Z,8.77
2022-10-31T23:19:22.904Z,13.17
2022-10-31T23:21:57.340Z,8.37
2022-10-31T23:24:32.859Z,10.70
2022-10-31T23:27:08.510Z,10.67
2022-10-31T23:29:45.937Z,8.90
2022-10-31T23:34:48.831Z,10.60
2022-10-31T23:37:18.113Z,15.17
2022-10-31T23:39:49.449Z,10.87
2022-10-31T23:42:18.708Z,17.07
2022-10-31T23:44:47.453Z,10.20
2022-10-31T23:47:16.778Z,7.73
2022-10-31T23:49:44.975Z,8.60
2022-10-31T23:52:14.598Z,8.13
2022-10-31T23:54:43.405Z,13.40
2022-10-31T23:57:15.102Z,8.63
2022-10-31T23:59:43.591Z,10.37
